createdAt,value
2023-02-04T00:02:09.060Z,102342.09
2023-02-04T00:04:35.878Z,102352.06
2023-02-04T00:07:02.586Z,102349.31
2023-02-04T00:09:29.321Z,102355.41
2023-02-04T00:11:55.953Z,102351.56
2023-02-04T00:14:22.788Z,102351.25
2023-02-04T00:16:49.616Z,102353.75
2023-02-04T00:19:17.053Z,102355.72
2023-02-04T00:21:43.858Z,102349.91
2023-02-04T00:24:10.486Z,102351.56
2023-02-04T00:26:37.320Z,102352.13
2023-02-04T00:29:04.026Z,102361.56
2023-02-04T00:31:31.765Z,102356.56
2023-02-04T00:33:59.755Z,102363.81
2023-02-04T00:36:26.524Z,102364.38
2023-02-04T00:38:53.204Z,102364.38
2023-02-04T00:41:20.300Z,102374.91
2023-02-04T00:43:47.023Z,102373.81
2023-02-04T00:46:13.722Z,102373.53
2023-02-04T00:48:40.425Z,102381.00
2023-02-04T00:51:07.176Z,102383.00
2023-02-04T00:53:33.982Z,102378.78
2023-02-04T00:56:00.720Z,102374.94
2023-02-04T00:58:27.486Z,102369.94
2023-02-04T01:00:54.129Z,102380.50
2023-02-04T01:03:20.856Z,102383.25
2023-02-04T01:05:47.593Z,102379.09
2023-02-04T01:08:14.262Z,102383.28
2023-02-04T01:10:41.201Z,102386.59
2023-02-04T01:13:09.225Z,102379.66
2023-02-04T01:15:36.068Z,102385.47
2023-02-04T01:18:03.078Z,102389.38
2023-02-04T01:20:30.394Z,102394.94
2023-02-04T01:22:57.266Z,102392.16
2023-02-04T01:25:24.086Z,102388.81
2023-02-04T01:27:50.813Z,102389.38
2023-02-04T01:30:17.874Z,102392.97
2023-02-04T01:32:44.742Z,102390.50
2023-02-04T01:35:11.621Z,102387.72
2023-02-04T01:37:38.565Z,102388.81
2023-02-04T01:40:06.107Z,102390.75
2023-02-04T01:42:34.590Z,102386.06
2023-02-04T01:45:01.648Z,102393.84
2023-02-04T01:47:28.329Z,102396.59
2023-02-04T01:49:55.759Z,102393.84
2023-02-04T01:52:23.607Z,102398.53
2023-02-04T01:54:51.934Z,102394.38
2023-02-04T01:57:18.773Z,102394.38
2023-02-04T01:59:47.262Z,102399.94
2023-02-04T02:02:44.789Z,102393.56
2023-02-04T02:05:15.375Z,102386.31
2023-02-04T02:07:42.403Z,102383.81
2023-02-04T02:10:11.818Z,102390.19
2023-02-04T02:12:38.827Z,102387.69
2023-02-04T02:15:06.065Z,102394.06
2023-02-04T02:17:33.792Z,102390.47
2023-02-04T02:20:00.925Z,102394.38
2023-02-04T02:22:37.625Z,102385.47
2023-02-04T02:25:12.207Z,102392.97
2023-02-04T02:27:39.420Z,102386.59
2023-02-04T02:30:09.583Z,102389.63
2023-02-04T02:32:36.864Z,102380.75
2023-02-04T02:35:06.795Z,102377.16
2023-02-04T02:37:34.197Z,102383.81
2023-02-04T02:40:00.933Z,102391.84
2023-02-04T02:42:27.732Z,102380.75
2023-02-04T02:44:54.793Z,102390.19
2023-02-04T02:47:23.797Z,102400.75
2023-02-04T02:49:53.128Z,102399.91
2023-02-04T02:52:19.888Z,102402.13
2023-02-04T02:54:47.426Z,102404.91
2023-02-04T02:57:23.517Z,102404.06
2023-02-04T02:59:50.507Z,102404.34
2023-02-04T03:02:22.464Z,102415.47
2023-02-04T03:04:56.078Z,102423.78
2023-02-04T03:07:26.276Z,102416.56
2023-02-04T03:09:54.412Z,102425.97
2023-02-04T03:12:21.210Z,102431.53
2023-02-04T03:14:48.238Z,102438.75
2023-02-04T03:17:15.301Z,102444.84
2023-02-04T03:19:42.397Z,102437.63
2023-02-04T03:22:09.734Z,102442.38
2023-02-04T03:24:37.095Z,102441.53
2023-02-04T03:27:04.278Z,102441.53
2023-02-04T03:29:30.907Z,102449.28
2023-02-04T03:32:00.162Z,102451.50
2023-02-04T03:34:27.044Z,102445.09
2023-02-04T03:36:53.750Z,102454.81
2023-02-04T03:39:20.426Z,102455.13
2023-02-04T03:41:47.184Z,102464.53
2023-02-04T03:44:14.125Z,102470.38
2023-02-04T03:46:40.972Z,102472.84
2023-02-04T03:49:07.793Z,102463.16
2023-02-04T03:51:34.611Z,102464.81
2023-02-04T03:54:01.462Z,102469.25
2023-02-04T03:56:28.322Z,102468.94
2023-02-04T03:58:55.157Z,102467.59
2023-02-04T04:01:21.820Z,102480.03
2023-02-04T04:03:48.605Z,102486.16
2023-02-04T04:06:15.311Z,102489.78
2023-02-04T04:08:41.963Z,102503.91
2023-02-04T04:11:08.867Z,102495.59
2023-02-04T04:13:35.530Z,102502.53
2023-02-04T04:16:03.906Z,102504.22
2023-02-04T04:18:32.842Z,102500.03
2023-02-04T04:20:59.768Z,102499.47
2023-02-04T04:23:26.616Z,102502.81
2023-02-04T04:25:53.549Z,102501.13
2023-02-04T04:28:20.333Z,102498.91
2023-02-04T04:30:46.973Z,102505.53
2023-02-04T04:33:13.594Z,102496.97
2023-02-04T04:35:40.279Z,102499.16
2023-02-04T04:38:06.951Z,102501.38
2023-02-04T04:40:33.830Z,102506.09
2023-02-04T04:43:00.647Z,102506.91
2023-02-04T04:45:27.368Z,102502.50
2023-02-04T04:47:53.967Z,102498.06
2023-02-04T04:50:20.757Z,102493.88
2023-02-04T04:52:47.552Z,102499.97
2023-02-04T04:55:14.560Z,102499.16
2023-02-04T04:57:41.297Z,102498.59
2023-02-04T05:00:09.541Z,102503.59
2023-02-04T05:02:36.286Z,102498.31
2023-02-04T05:05:03.081Z,102509.38
2023-02-04T05:07:29.808Z,102511.91
2023-02-04T05:09:56.688Z,102509.38
2023-02-04T05:12:23.370Z,102511.63
2023-02-04T05:14:49.984Z,102512.69
2023-02-04T05:17:16.667Z,102507.44
2023-02-04T05:19:43.305Z,102503.53
2023-02-04T05:22:09.967Z,102505.75
2023-02-04T05:24:36.539Z,102515.19
2023-02-04T05:27:03.345Z,102516.84
2023-02-04T05:29:30.139Z,102516.31
2023-02-04T05:31:57.093Z,102522.94
2023-02-04T05:34:23.913Z,102525.72
2023-02-04T05:36:50.738Z,102514.06
2023-02-04T05:39:17.475Z,102515.72
2023-02-04T05:41:44.305Z,102508.78
2023-02-04T05:44:11.170Z,102497.97
2023-02-04T05:46:39.306Z,102506.84
2023-02-04T05:49:07.486Z,102518.19
2023-02-04T05:51:34.612Z,102524.56
2023-02-04T05:54:01.246Z,102510.16
2023-02-04T05:56:27.962Z,102518.19
2023-02-04T05:58:54.635Z,102521.22
2023-02-04T06:01:21.189Z,102527.88
2023-02-04T06:03:47.797Z,102528.47
2023-02-04T06:06:14.466Z,102536.19
2023-02-04T06:08:41.121Z,102532.84
2023-02-04T06:11:07.939Z,102543.94
2023-02-04T06:13:34.972Z,102537.84
2023-02-04T06:16:01.790Z,102535.63
2023-02-04T06:18:28.599Z,102542.81
2023-02-04T06:20:55.158Z,102553.34
2023-02-04T06:23:21.950Z,102545.03
2023-02-04T06:25:50.386Z,102545.31
2023-02-04T06:28:17.263Z,102550.84
2023-02-04T06:30:44.328Z,102550.53
2023-02-04T06:33:11.097Z,102553.31
2023-02-04T06:35:38.158Z,102558.84
2023-02-04T06:38:04.839Z,102553.31
2023-02-04T06:40:31.933Z,102556.34
2023-02-04T06:42:58.729Z,102559.38
2023-02-04T06:45:25.402Z,102552.16
2023-02-04T06:47:52.095Z,102566.56
2023-02-04T06:50:18.952Z,102571.00
2023-02-04T06:52:46.724Z,102563.78
2023-02-04T06:55:14.744Z,102569.34
2023-02-04T06:57:41.703Z,102573.22
2023-02-04T07:00:10.456Z,102574.06
2023-02-04T07:02:39.468Z,102573.22
2023-02-04T07:05:06.742Z,102577.41
2023-02-04T07:07:33.616Z,102581.56
2023-02-04T07:10:00.834Z,102584.91
2023-02-04T07:12:27.676Z,102581.03
2023-02-04T07:14:54.253Z,102584.94
2023-02-04T07:17:21.089Z,102593.19
2023-02-04T07:19:47.696Z,102594.13
2023-02-04T07:22:14.391Z,102604.16
2023-02-04T07:24:41.160Z,102605.34
2023-02-04T07:27:07.816Z,102608.72
2023-02-04T07:29:34.552Z,102615.41
2023-02-04T07:32:01.503Z,102619.31
2023-02-04T07:34:28.386Z,102615.44
2023-02-04T07:36:55.259Z,102606.25
2023-02-04T07:39:22.166Z,102615.97
2023-02-04T07:41:48.922Z,102619.91
2023-02-04T07:44:21.588Z,102617.66
2023-02-04T07:46:48.215Z,102624.31
2023-02-04T07:49:14.794Z,102620.69
2023-02-04T07:51:41.540Z,102620.16
2023-02-04T07:54:08.395Z,102622.63
2023-02-04T07:56:35.290Z,102637.09
2023-02-04T07:59:01.994Z,102635.44
2023-02-04T08:01:28.641Z,102635.16
2023-02-04T08:03:55.247Z,102643.22
2023-02-04T08:06:21.930Z,102641.84
2023-02-04T08:08:48.479Z,102646.56
2023-02-04T08:11:15.384Z,102640.94
2023-02-04T08:13:42.194Z,102640.66
2023-02-04T08:16:10.073Z,102639.81
2023-02-04T08:18:38.076Z,102647.59
2023-02-04T08:21:06.297Z,102653.16
2023-02-04T08:23:33.415Z,102658.16
2023-02-04T08:26:00.094Z,102655.38
2023-02-04T08:28:26.774Z,102663.69
2023-02-04T08:30:53.825Z,102660.91
2023-02-04T08:33:22.196Z,102660.38
2023-02-04T08:35:52.245Z,102669.22
2023-02-04T08:38:18.928Z,102664.50
2023-02-04T08:40:45.857Z,102670.63
2023-02-04T08:43:12.538Z,102666.97
2023-02-04T08:45:39.376Z,102673.66
2023-02-04T08:48:07.750Z,102670.88
2023-02-04T08:50:34.698Z,102670.88
2023-02-04T08:53:01.340Z,102685.03
2023-02-04T08:55:27.957Z,102683.31
2023-02-04T08:57:54.588Z,102676.59
2023-02-04T09:00:21.555Z,102679.16
2023-02-04T09:02:48.176Z,102690.84
2023-02-04T09:05:14.968Z,102694.19
2023-02-04T09:07:41.896Z,102696.13
2023-02-04T09:10:08.897Z,102692.81
2023-02-04T09:12:38.478Z,102696.16
2023-02-04T09:15:05.651Z,102691.34
2023-02-04T09:17:32.331Z,102685.84
2023-02-04T09:19:59.148Z,102687.22
2023-02-04T09:22:25.981Z,102689.16
2023-02-04T09:24:53.049Z,102686.41
2023-02-04T09:27:19.982Z,102690.56
2023-02-04T09:29:46.716Z,102687.25
2023-02-04T09:32:13.344Z,102692.22
2023-02-04T09:34:40.097Z,102690.25
2023-02-04T09:37:06.778Z,102700.25
2023-02-04T09:39:33.631Z,102709.72
2023-02-04T09:42:00.406Z,102705.88
2023-02-04T09:44:28.770Z,102701.69
2023-02-04T09:46:58.715Z,102714.19
2023-02-04T09:49:26.615Z,102701.06
2023-02-04T09:51:54.387Z,102708.66
2023-02-04T09:54:22.760Z,102718.13
2023-02-04T09:56:50.425Z,102710.88
2023-02-04T09:59:20.630Z,102704.16
2023-02-04T10:02:11.577Z,102718.13
2023-02-04T10:04:38.407Z,102712.53
2023-02-04T10:07:12.140Z,102708.63
2023-02-04T10:09:40.193Z,102708.09
2023-02-04T10:12:07.542Z,102711.13
2023-02-04T10:14:34.546Z,102713.38
2023-02-04T10:17:01.572Z,102710.03
2023-02-04T10:19:30.818Z,102724.78
2023-02-04T10:21:58.067Z,102713.63
2023-02-04T10:24:26.620Z,102720.59
2023-02-04T10:26:54.224Z,102731.72
2023-02-04T10:29:25.087Z,102730.25
2023-02-04T10:31:52.809Z,102738.25
2023-02-04T10:34:24.422Z,102738.53
2023-02-04T10:36:54.367Z,102741.31
2023-02-04T10:39:29.074Z,102735.81
2023-02-04T10:41:59.990Z,102741.97
2023-02-04T10:44:26.652Z,102741.31
2023-02-04T10:47:20.348Z,102736.34
2023-02-04T10:49:55.997Z,102729.09
2023-02-04T10:52:30.444Z,102733.56
2023-02-04T10:54:58.225Z,102728.59
2023-02-04T10:57:28.678Z,102735.00
2023-02-04T10:59:58.830Z,102728.06
2023-02-04T11:02:25.418Z,102735.84
2023-02-04T11:04:52.777Z,102731.38
2023-02-04T11:07:20.726Z,102726.66
2023-02-04T11:09:48.775Z,102728.63
2023-02-04T11:12:42.262Z,102724.53
2023-02-04T11:15:50.397Z,102720.31
2023-02-04T11:18:23.332Z,102731.72
2023-02-04T11:20:52.747Z,102737.22
2023-02-04T11:23:34.343Z,102739.41
2023-02-04T11:26:07.707Z,102741.88
2023-02-04T11:28:57.638Z,102747.72
2023-02-04T11:31:24.622Z,102747.97
2023-02-04T11:34:24.101Z,102753.13
2023-02-04T11:36:59.748Z,102757.78
2023-02-04T11:39:41.192Z,102750.03
2023-02-04T11:42:41.145Z,102738.34
2023-02-04T11:45:15.557Z,102742.25
2023-02-04T11:47:44.254Z,102746.72
2023-02-04T11:50:21.168Z,102744.97
2023-02-04T11:52:48.039Z,102742.47
2023-02-04T11:55:14.887Z,102743.31
2023-02-04T11:57:43.938Z,102738.63
2023-02-04T12:00:16.172Z,102734.41
2023-02-04T12:02:48.380Z,102736.84
2023-02-04T12:05:19.841Z,102743.78
2023-02-04T12:07:47.637Z,102738.22
2023-02-04T12:10:33.919Z,102739.63
2023-02-04T12:13:00.560Z,102740.19
2023-02-04T12:15:37.864Z,102743.00
2023-02-04T12:18:09.771Z,102735.63
2023-02-04T12:20:37.300Z,102743.97
2023-02-04T12:23:04.382Z,102746.44
2023-02-04T12:25:31.767Z,102743.66
2023-02-04T12:27:58.781Z,102732.00
2023-02-04T12:30:26.609Z,102734.25
2023-02-04T12:32:53.599Z,102740.91
2023-02-04T12:35:20.554Z,102739.88
2023-02-04T12:37:47.248Z,102734.31
2023-02-04T12:40:19.593Z,102737.16
2023-02-04T12:42:46.546Z,102740.47
2023-02-04T12:45:15.226Z,102734.31
2023-02-04T12:47:42.329Z,102736.03
2023-02-04T12:50:11.506Z,102732.38
2023-02-04T12:52:39.454Z,102737.41
2023-02-04T12:55:08.095Z,102735.44
2023-02-04T12:57:35.315Z,102741.47
2023-02-04T13:00:03.743Z,102746.00
2023-02-04T13:02:30.719Z,102750.47
2023-02-04T13:04:57.508Z,102738.19
2023-02-04T13:07:24.305Z,102744.63
2023-02-04T13:09:51.038Z,102740.72
2023-02-04T13:12:17.860Z,102737.03
2023-02-04T13:14:44.956Z,102738.16
2023-02-04T13:17:11.768Z,102729.63
2023-02-04T13:19:38.642Z,102727.63
2023-02-04T13:22:05.364Z,102732.06
2023-02-04T13:24:32.277Z,102727.84
2023-02-04T13:26:59.160Z,102723.75
2023-02-04T13:29:26.011Z,102723.75
2023-02-04T13:31:52.939Z,102728.19
2023-02-04T13:34:19.787Z,102729.84
2023-02-04T13:36:46.557Z,102730.16
2023-02-04T13:39:13.339Z,102731.19
2023-02-04T13:41:40.975Z,102722.56
2023-02-04T13:44:07.960Z,102720.31
2023-02-04T13:46:34.946Z,102719.25
2023-02-04T13:49:01.649Z,102710.31
2023-02-04T13:51:28.496Z,102717.50
2023-02-04T13:53:55.299Z,102702.53
2023-02-04T13:56:22.206Z,102705.78
2023-02-04T13:58:48.873Z,102710.84
2023-02-04T14:01:15.608Z,102712.50
2023-02-04T14:03:42.904Z,102717.50
2023-02-04T14:06:13.189Z,102711.09
2023-02-04T14:08:39.847Z,102717.72
2023-02-04T14:11:07.404Z,102715.84
2023-02-04T14:13:34.335Z,102713.94
2023-02-04T14:16:01.053Z,102726.47
2023-02-04T14:18:27.755Z,102715.25
2023-02-04T14:20:54.408Z,102721.66
2023-02-04T14:23:21.017Z,102721.41
2023-02-04T14:25:47.653Z,102729.78
2023-02-04T14:28:14.329Z,102723.09
2023-02-04T14:30:41.036Z,102730.28
2023-02-04T14:33:09.097Z,102729.72
2023-02-04T14:35:37.590Z,102725.00
2023-02-04T14:38:04.252Z,102723.88
2023-02-04T14:40:31.203Z,102725.81
2023-02-04T14:42:58.122Z,102720.84
2023-02-04T14:45:24.829Z,102720.53
2023-02-04T14:47:52.659Z,102717.44
2023-02-04T14:50:19.406Z,102712.13
2023-02-04T14:52:46.076Z,102721.34
2023-02-04T14:55:14.379Z,102724.13
2023-02-04T14:57:41.021Z,102724.72
2023-02-04T15:00:08.482Z,102730.88
2023-02-04T15:02:35.423Z,102728.66
2023-02-04T15:05:02.412Z,102732.56
2023-02-04T15:07:29.118Z,102733.16
2023-02-04T15:09:56.016Z,102732.69
2023-02-04T15:12:22.762Z,102728.81
2023-02-04T15:14:49.512Z,102728.81
2023-02-04T15:17:16.236Z,102738.88
2023-02-04T15:19:42.955Z,102738.56
2023-02-04T15:22:09.715Z,102736.84
2023-02-04T15:24:36.405Z,102737.19
2023-02-04T15:27:03.107Z,102734.34
2023-02-04T15:29:30.548Z,102737.78
2023-02-04T15:31:57.416Z,102745.03
2023-02-04T15:34:24.603Z,102740.94
2023-02-04T15:36:51.349Z,102745.69
2023-02-04T15:39:18.037Z,102743.75
2023-02-04T15:41:45.071Z,102742.34
2023-02-04T15:44:12.689Z,102733.47
2023-02-04T15:46:39.494Z,102742.16
2023-02-04T15:49:06.178Z,102734.59
2023-02-04T15:51:33.165Z,102730.16
2023-02-04T15:53:59.976Z,102740.75
2023-02-04T15:56:26.804Z,102736.66
2023-02-04T15:58:54.799Z,102727.72
2023-02-04T16:01:21.804Z,102726.56
2023-02-04T16:03:50.767Z,102731.81
2023-02-04T16:06:17.447Z,102736.13
2023-02-04T16:08:44.217Z,102733.34
2023-02-04T16:11:10.813Z,102739.84
2023-02-04T16:13:37.501Z,102739.91
2023-02-04T16:16:04.555Z,102746.88
2023-02-04T16:18:31.405Z,102750.81
2023-02-04T16:20:58.261Z,102750.28
2023-02-04T16:23:25.144Z,102750.81
2023-02-04T16:25:52.111Z,102754.91
2023-02-04T16:28:18.887Z,102755.25
2023-02-04T16:30:45.586Z,102749.97
2023-02-04T16:33:12.350Z,102754.09
2023-02-04T16:36:02.178Z,102754.13
2023-02-04T16:38:29.569Z,102758.59
2023-02-04T16:40:57.237Z,102765.00
2023-02-04T16:43:24.497Z,102761.91
2023-02-04T16:45:51.318Z,102759.16
2023-02-04T16:48:18.043Z,102763.56
2023-02-04T16:50:44.775Z,102759.97
2023-02-04T16:53:15.048Z,102762.47
2023-02-04T16:55:45.757Z,102770.56
2023-02-04T16:58:13.546Z,102766.31
2023-02-04T17:00:44.821Z,102774.66
2023-02-04T17:03:13.174Z,102765.78
2023-02-04T17:05:40.816Z,102775.78
2023-02-04T17:08:08.170Z,102767.44
2023-02-04T17:10:58.338Z,102777.66
2023-02-04T17:13:25.018Z,102783.59
2023-02-04T17:15:52.006Z,102782.75
2023-02-04T17:18:18.709Z,102784.13
2023-02-04T17:20:45.548Z,102791.38
2023-02-04T17:23:12.409Z,102790.53
2023-02-04T17:25:39.271Z,102794.75
2023-02-04T17:28:06.230Z,102790.19
2023-02-04T17:30:32.899Z,102786.34
2023-02-04T17:32:59.631Z,102790.81
2023-02-04T17:35:26.257Z,102798.09
2023-02-04T17:37:54.021Z,102790.56
2023-02-04T17:40:20.793Z,102789.78
2023-02-04T17:42:47.470Z,102789.19
2023-02-04T17:45:14.232Z,102794.78
2023-02-04T17:47:41.184Z,102798.72
2023-02-04T17:50:10.035Z,102793.63
2023-02-04T17:52:37.949Z,102802.59
2023-02-04T17:55:31.495Z,102795.06
2023-02-04T17:58:01.209Z,102795.38
2023-02-04T18:00:30.775Z,102799.84
2023-02-04T18:02:57.885Z,102798.78
2023-02-04T18:05:27.622Z,102804.63
2023-02-04T18:08:01.921Z,102801.50
2023-02-04T18:10:35.496Z,102808.22
2023-02-04T18:13:11.967Z,102800.16
2023-02-04T18:15:39.052Z,102806.00
2023-02-04T18:18:20.831Z,102807.94
2023-02-04T18:20:51.290Z,102804.25
2023-02-04T18:23:19.335Z,102808.00
2023-02-04T18:25:48.487Z,102803.81
2023-02-04T18:28:20.875Z,102805.78
2023-02-04T18:30:52.988Z,102803.72
2023-02-04T18:33:26.064Z,102809.09
2023-02-04T18:35:58.369Z,102804.66
2023-02-04T18:38:39.186Z,102809.13
2023-02-04T18:41:17.806Z,102807.50
2023-02-04T18:43:51.139Z,102814.50
2023-02-04T18:46:24.598Z,102810.28
2023-02-04T18:49:00.073Z,102809.47
2023-02-04T18:51:32.844Z,102814.25
2023-02-04T18:54:21.195Z,102812.59
2023-02-04T18:56:48.669Z,102796.69
2023-02-04T18:59:19.595Z,102797.03
2023-02-04T19:01:48.581Z,102794.78
2023-02-04T19:04:22.381Z,102797.06
2023-02-04T19:06:52.062Z,102790.06
2023-02-04T19:09:27.586Z,102792.88
2023-02-04T19:11:56.896Z,102798.44
2023-02-04T19:14:23.620Z,102801.69
2023-02-04T19:16:52.765Z,102797.53
2023-02-04T19:19:29.720Z,102795.22
2023-02-04T19:21:57.165Z,102802.50
2023-02-04T19:24:27.872Z,102799.66
2023-02-04T19:27:02.319Z,102808.28
2023-02-04T19:29:42.496Z,102814.44
2023-02-04T19:32:53.475Z,102803.81
2023-02-04T19:35:23.022Z,102806.94
2023-02-04T19:38:33.082Z,102807.56
2023-02-04T19:41:00.431Z,102807.59
2023-02-04T19:43:36.994Z,102807.94
2023-02-04T19:46:25.160Z,102801.56
2023-02-04T19:48:52.138Z,102796.81
2023-02-04T19:51:20.167Z,102799.38
2023-02-04T19:53:51.644Z,102799.38
2023-02-04T19:56:39.061Z,102800.81
2023-02-04T19:59:14.504Z,102794.13
2023-02-04T20:01:41.419Z,102799.72
2023-02-04T20:04:17.439Z,102805.59
2023-02-04T20:06:45.305Z,102807.81
2023-02-04T20:09:29.122Z,102808.91
2023-02-04T20:12:15.569Z,102815.63
2023-02-04T20:14:52.019Z,102812.81
2023-02-04T20:17:36.373Z,102815.91
2023-02-04T20:20:21.787Z,102811.75
2023-02-04T20:22:54.408Z,102812.31
2023-02-04T20:25:21.709Z,102810.34
2023-02-04T20:27:55.372Z,102813.41
2023-02-04T20:30:31.526Z,102814.53
2023-02-04T20:33:10.918Z,102809.25
2023-02-04T20:35:37.604Z,102802.84
2023-02-04T20:38:18.026Z,102790.63
2023-02-04T20:40:46.736Z,102793.41
2023-02-04T20:43:20.302Z,102795.91
2023-02-04T20:45:50.827Z,102789.50
2023-02-04T20:48:17.702Z,102787.28
2023-02-04T20:50:56.662Z,102788.97
2023-02-04T20:53:26.421Z,102787.28
2023-02-04T20:56:03.380Z,102789.53
2023-02-04T20:58:38.222Z,102792.88
2023-02-04T21:01:19.490Z,102794.81
2023-02-04T21:03:46.480Z,102791.19
2023-02-04T21:06:31.610Z,102798.41
2023-02-04T21:08:59.798Z,102804.28
2023-02-04T21:11:26.983Z,102800.09
2023-02-04T21:13:56.973Z,102805.69
2023-02-04T21:16:23.634Z,102810.09
2023-02-04T21:18:54.196Z,102811.22
2023-02-04T21:21:23.212Z,102822.94
2023-02-04T21:23:50.212Z,102817.34
2023-02-04T21:26:17.102Z,102819.84
2023-02-04T21:28:44.131Z,102820.41
2023-02-04T21:31:11.608Z,102812.31
2023-02-04T21:33:38.466Z,102811.78
2023-02-04T21:36:05.717Z,102818.19
2023-02-04T21:38:32.506Z,102811.78
2023-02-04T21:40:59.078Z,102813.41
2023-02-04T21:43:27.121Z,102809.84
2023-02-04T21:45:53.692Z,102813.72
2023-02-04T21:48:20.463Z,102812.31
2023-02-04T21:50:47.078Z,102817.88
2023-02-04T21:53:13.927Z,102819.78
2023-02-04T21:55:40.669Z,102828.97
2023-02-04T21:58:07.547Z,102829.22
2023-02-04T22:00:35.367Z,102829.78
2023-02-04T22:03:02.286Z,102827.28
2023-02-04T22:05:29.057Z,102824.22
2023-02-04T22:07:55.823Z,102822.28
2023-02-04T22:10:25.644Z,102814.19
2023-02-04T22:12:52.642Z,102818.09
2023-02-04T22:15:22.609Z,102812.25
2023-02-04T22:17:51.124Z,102815.28
2023-02-04T22:20:18.983Z,102803.38
2023-02-04T22:22:47.049Z,102801.69
2023-02-04T22:25:16.080Z,102793.34
2023-02-04T22:27:42.769Z,102791.66
2023-02-04T22:30:12.202Z,102793.31
2023-02-04T22:32:39.506Z,102797.75
2023-02-04T22:35:10.427Z,102798.00
2023-02-04T22:37:41.195Z,102804.16
2023-02-04T22:40:09.448Z,102802.75
2023-02-04T22:42:36.071Z,102808.88
2023-02-04T22:45:03.852Z,102815.53
2023-02-04T22:47:30.867Z,102816.06
2023-02-04T22:49:57.692Z,102811.06
2023-02-04T22:52:24.459Z,102807.72
2023-02-04T22:54:52.071Z,102807.72
2023-02-04T22:57:18.729Z,102814.38
2023-02-04T22:59:45.515Z,102816.06
2023-02-04T23:02:12.394Z,102817.72
2023-02-04T23:04:39.276Z,102829.66
2023-02-04T23:07:06.056Z,102827.19
2023-02-04T23:09:32.888Z,102840.78
2023-02-04T23:12:12.789Z,102837.16
2023-02-04T23:14:47.228Z,102840.47
2023-02-04T23:17:15.573Z,102837.16
2023-02-04T23:19:42.711Z,102831.56
2023-02-04T23:22:10.964Z,102836.84
2023-02-04T23:24:38.177Z,102839.34
2023-02-04T23:27:05.425Z,102838.78
2023-02-04T23:29:32.721Z,102839.31
2023-02-04T23:31:59.442Z,102842.69
2023-02-04T23:34:26.156Z,102842.69
2023-02-04T23:36:52.879Z,102851.00
2023-02-04T23:39:20.739Z,102849.31
2023-02-04T23:41:48.254Z,102847.09
2023-02-04T23:44:15.384Z,102839.84
2023-02-04T23:46:42.141Z,102839.84
2023-02-04T23:49:09.220Z,102826.25
2023-02-04T23:51:36.140Z,102815.97
2023-02-04T23:54:02.908Z,102824.56
2023-02-04T23:56:29.755Z,102819.84
2023-02-04T23:58:56.429Z,102810.13
